createdAt,value
2023-02-11T00:02:11.176Z,0.90
2023-02-11T00:04:23.903Z,1.90
2023-02-11T00:06:38.784Z,0.80
2023-02-11T00:08:51.634Z,1.30
2023-02-11T00:11:05.802Z,2.20
2023-02-11T00:13:18.225Z,2.40
2023-02-11T00:15:31.828Z,1.20
2023-02-11T00:17:45.579Z,2.00
2023-02-11T00:19:59.309Z,1.30
2023-02-11T00:22:12.980Z,2.70
2023-02-11T00:24:26.749Z,2.10
2023-02-11T00:26:41.006Z,1.30
2023-02-11T00:28:56.101Z,2.40
2023-02-11T00:31:09.605Z,1.30
2023-02-11T00:33:23.189Z,1.70
2023-02-11T00:35:36.344Z,1.50
2023-02-11T00:37:52.081Z,1.90
2023-02-11T00:40:06.812Z,1.50
2023-02-11T00:42:21.065Z,1.80
2023-02-11T00:44:35.178Z,1.90
2023-02-11T00:46:48.994Z,3.00
2023-02-11T00:49:03.693Z,2.10
2023-02-11T00:51:17.639Z,2.60
2023-02-11T00:53:31.265Z,1.20
2023-02-11T00:55:44.430Z,3.20
2023-02-11T00:57:58.005Z,1.20
2023-02-11T01:00:13.316Z,1.50
2023-02-11T01:02:27.344Z,1.40
2023-02-11T01:04:41.198Z,1.00
2023-02-11T01:06:54.500Z,1.80
2023-02-11T01:09:08.443Z,1.50
2023-02-11T01:11:24.183Z,1.00
2023-02-11T01:13:40.213Z,1.60
2023-02-11T01:15:57.467Z,1.20
2023-02-11T01:18:11.625Z,1.70
2023-02-11T01:20:26.833Z,1.60
2023-02-11T01:22:40.798Z,1.20
2023-02-11T01:24:54.207Z,1.00
2023-02-11T01:27:07.275Z,1.90
2023-02-11T01:29:21.793Z,1.80
2023-02-11T01:31:36.596Z,3.50
2023-02-11T01:33:50.306Z,0.80
2023-02-11T01:36:07.648Z,0.90
2023-02-11T01:38:24.859Z,1.50
2023-02-11T01:40:40.295Z,1.60
2023-02-11T01:42:53.551Z,1.20
2023-02-11T01:45:27.745Z,1.60
2023-02-11T01:47:40.968Z,2.10
2023-02-11T01:49:59.142Z,2.00
2023-02-11T01:52:18.711Z,3.30
2023-02-11T01:54:52.781Z,3.80
2023-02-11T01:57:26.100Z,1.10
2023-02-11T01:59:43.908Z,3.70
2023-02-11T02:02:00.478Z,1.70
2023-02-11T02:04:15.261Z,3.50
2023-02-11T02:06:33.337Z,2.40
2023-02-11T02:08:52.827Z,2.40
2023-02-11T02:11:06.211Z,2.30
2023-02-11T02:13:19.268Z,5.30
2023-02-11T02:15:36.286Z,3.70
2023-02-11T02:17:56.181Z,2.60
2023-02-11T02:20:45.883Z,3.50
2023-02-11T02:23:14.902Z,4.40
2023-02-11T02:25:47.007Z,4.30
2023-02-11T02:28:21.035Z,2.20
2023-02-11T02:30:59.434Z,2.60
2023-02-11T02:33:24.936Z,4.30
2023-02-11T02:35:44.491Z,3.10
2023-02-11T02:38:06.254Z,6.10
2023-02-11T02:40:25.446Z,3.30
2023-02-11T02:42:38.685Z,6.30
2023-02-11T02:44:56.436Z,4.20
2023-02-11T02:47:09.207Z,3.20
2023-02-11T02:49:22.406Z,3.90
2023-02-11T02:51:51.035Z,3.60
2023-02-11T02:54:24.161Z,3.00
2023-02-11T02:56:47.391Z,3.20
2023-02-11T02:59:23.611Z,6.10
2023-02-11T03:01:46.233Z,4.90
2023-02-11T03:04:09.416Z,5.20
2023-02-11T03:06:33.416Z,5.60
2023-02-11T03:08:52.144Z,2.90
2023-02-11T03:11:08.488Z,2.60
2023-02-11T03:13:25.021Z,3.10
2023-02-11T03:15:42.120Z,3.50
2023-02-11T03:17:59.948Z,3.70
2023-02-11T03:20:17.941Z,3.20
2023-02-11T03:22:36.659Z,4.70
2023-02-11T03:24:50.831Z,8.50
2023-02-11T03:27:10.288Z,2.90
2023-02-11T03:29:33.949Z,7.10
2023-02-11T03:31:57.952Z,4.50
2023-02-11T03:34:16.553Z,2.40
2023-02-11T03:36:35.923Z,2.70
2023-02-11T03:38:54.745Z,4.70
2023-02-11T03:41:09.349Z,3.50
2023-02-11T03:43:25.217Z,3.30
2023-02-11T03:45:39.925Z,2.60
2023-02-11T03:47:59.549Z,6.50
2023-02-11T03:50:15.836Z,3.60
2023-02-11T03:52:29.579Z,2.20
2023-02-11T03:54:45.179Z,3.30
2023-02-11T03:56:59.760Z,4.20
2023-02-11T03:59:13.687Z,4.70
2023-02-11T04:01:26.662Z,3.50
2023-02-11T04:03:39.584Z,5.40
2023-02-11T04:05:53.449Z,5.70
2023-02-11T04:08:08.964Z,5.50
2023-02-11T04:10:22.317Z,5.80
2023-02-11T04:12:35.969Z,3.80
2023-02-11T04:14:50.334Z,2.90
2023-02-11T04:17:04.014Z,4.90
2023-02-11T04:19:17.075Z,7.30
2023-02-11T04:21:30.964Z,4.10
2023-02-11T04:23:44.014Z,5.10
2023-02-11T04:25:57.651Z,5.80
2023-02-11T04:28:10.643Z,4.90
2023-02-11T04:30:24.582Z,4.30
2023-02-11T04:32:37.924Z,4.20
2023-02-11T04:34:51.662Z,4.60
2023-02-11T04:37:05.297Z,5.40
2023-02-11T04:39:19.129Z,4.90
2023-02-11T04:41:33.327Z,7.10
2023-02-11T04:43:46.501Z,10.50
2023-02-11T04:46:02.532Z,7.40
2023-02-11T04:48:15.128Z,9.80
2023-02-11T04:50:27.815Z,8.10
2023-02-11T04:52:40.354Z,7.80
2023-02-11T04:54:53.020Z,7.50
2023-02-11T04:57:05.527Z,5.70
2023-02-11T04:59:18.195Z,6.30
2023-02-11T05:01:31.150Z,5.90
2023-02-11T05:03:44.124Z,7.60
2023-02-11T05:05:58.611Z,11.30
2023-02-11T05:08:14.055Z,7.70
2023-02-11T05:10:27.425Z,11.00
2023-02-11T05:12:40.615Z,7.00
2023-02-11T05:14:53.850Z,8.80
2023-02-11T05:17:06.698Z,7.00
2023-02-11T05:19:19.790Z,7.90
2023-02-11T05:21:33.905Z,6.40
2023-02-11T05:23:48.326Z,6.10
2023-02-11T05:26:01.332Z,6.30
2023-02-11T05:28:14.051Z,9.30
2023-02-11T05:30:28.546Z,6.70
2023-02-11T05:32:41.317Z,11.50
2023-02-11T05:34:55.008Z,11.00
2023-02-11T05:37:09.925Z,7.20
2023-02-11T05:39:23.496Z,5.00
2023-02-11T05:41:37.268Z,5.60
2023-02-11T05:43:50.994Z,9.10
2023-02-11T05:46:04.520Z,8.20
2023-02-11T05:48:17.345Z,8.40
2023-02-11T05:50:30.812Z,9.40
2023-02-11T05:52:43.695Z,5.90
2023-02-11T05:54:57.733Z,7.00
2023-02-11T05:57:11.996Z,6.80
2023-02-11T05:59:24.553Z,8.60
2023-02-11T06:01:37.434Z,5.60
2023-02-11T06:03:51.130Z,7.70
2023-02-11T06:06:04.245Z,8.20
2023-02-11T06:08:18.302Z,8.30
2023-02-11T06:10:32.136Z,11.90
2023-02-11T06:12:45.959Z,8.60
2023-02-11T06:15:00.025Z,8.70
2023-02-11T06:17:15.525Z,11.60
2023-02-11T06:19:29.885Z,10.80
2023-02-11T06:21:44.524Z,11.20
2023-02-11T06:23:57.765Z,7.90
2023-02-11T06:26:12.574Z,9.80
2023-02-11T06:28:25.234Z,7.50
2023-02-11T06:30:39.397Z,8.10
2023-02-11T06:32:52.517Z,9.90
2023-02-11T06:35:06.386Z,8.80
2023-02-11T06:37:19.009Z,7.50
2023-02-11T06:39:35.134Z,11.30
2023-02-11T06:41:47.644Z,7.40
2023-02-11T06:44:00.839Z,6.90
2023-02-11T06:46:14.280Z,14.40
2023-02-11T06:48:27.749Z,9.60
2023-02-11T06:50:41.414Z,11.60
2023-02-11T06:52:54.007Z,7.80
2023-02-11T06:55:08.492Z,6.50
2023-02-11T06:57:21.100Z,8.00
2023-02-11T06:59:33.619Z,7.20
2023-02-11T07:01:47.360Z,9.80
2023-02-11T07:04:00.770Z,7.90
2023-02-11T07:06:15.250Z,9.20
2023-02-11T07:08:28.006Z,8.60
2023-02-11T07:10:42.027Z,7.80
2023-02-11T07:12:56.002Z,7.20
2023-02-11T07:15:11.152Z,10.50
2023-02-11T07:17:25.555Z,6.90
2023-02-11T07:19:39.904Z,10.70
2023-02-11T07:21:52.453Z,12.60
2023-02-11T07:24:05.109Z,9.00
2023-02-11T07:26:21.738Z,6.60
2023-02-11T07:28:35.660Z,7.60
2023-02-11T07:30:48.486Z,10.40
2023-02-11T07:33:03.011Z,10.00
2023-02-11T07:35:16.748Z,7.90
2023-02-11T07:37:30.317Z,8.70
2023-02-11T07:39:43.551Z,12.60
2023-02-11T07:41:56.198Z,9.80
2023-02-11T07:44:10.983Z,12.50
2023-02-11T07:46:26.429Z,8.70
2023-02-11T07:48:40.116Z,8.70
2023-02-11T07:50:53.915Z,10.40
2023-02-11T07:53:07.458Z,7.60
2023-02-11T07:55:20.523Z,10.50
2023-02-11T07:57:33.912Z,8.90
2023-02-11T07:59:47.247Z,9.40
2023-02-11T08:02:01.257Z,9.30
2023-02-11T08:04:15.109Z,11.90
2023-02-11T08:06:31.551Z,10.00
2023-02-11T08:08:45.469Z,9.40
2023-02-11T08:10:59.326Z,11.90
2023-02-11T08:13:12.265Z,9.70
2023-02-11T08:15:25.253Z,9.40
2023-02-11T08:17:38.760Z,7.70
2023-02-11T08:19:52.810Z,13.20
2023-02-11T08:22:07.403Z,13.40
2023-02-11T08:24:21.760Z,8.00
2023-02-11T08:26:37.810Z,12.90
2023-02-11T08:28:54.919Z,6.10
2023-02-11T08:31:15.649Z,11.70
2023-02-11T08:33:28.256Z,9.00
2023-02-11T08:35:43.669Z,14.30
2023-02-11T08:37:57.144Z,14.00
2023-02-11T08:40:12.249Z,10.80
2023-02-11T08:42:24.967Z,10.10
2023-02-11T08:44:38.954Z,9.80
2023-02-11T08:46:51.978Z,7.80
2023-02-11T08:49:04.621Z,10.90
2023-02-11T08:51:20.409Z,12.10
2023-02-11T08:53:33.189Z,9.30
2023-02-11T08:55:51.422Z,10.90
2023-02-11T08:58:04.142Z,12.60
2023-02-11T09:00:19.788Z,12.20
2023-02-11T09:02:32.985Z,6.90
2023-02-11T09:04:46.787Z,6.70
2023-02-11T09:07:00.148Z,9.00
2023-02-11T09:09:16.967Z,6.40
2023-02-11T09:11:33.300Z,11.60
2023-02-11T09:13:47.470Z,11.80
2023-02-11T09:16:00.407Z,6.80
2023-02-11T09:18:13.177Z,9.60
2023-02-11T09:20:27.645Z,7.40
2023-02-11T09:22:40.387Z,7.60
2023-02-11T09:24:52.895Z,5.40
2023-02-11T09:27:06.056Z,10.20
2023-02-11T09:29:19.335Z,9.30
2023-02-11T09:31:35.175Z,9.30
2023-02-11T09:33:50.683Z,8.60
2023-02-11T09:36:06.954Z,7.40
2023-02-11T09:38:19.460Z,7.70
2023-02-11T09:40:32.300Z,8.50
2023-02-11T09:43:04.259Z,8.00
2023-02-11T09:45:21.655Z,11.20
2023-02-11T09:47:37.484Z,12.10
2023-02-11T09:49:53.231Z,12.80
2023-02-11T09:52:11.553Z,7.00
2023-02-11T09:54:30.056Z,7.90
2023-02-11T09:56:43.098Z,9.70
2023-02-11T09:58:55.687Z,7.60
2023-02-11T10:01:14.670Z,8.80
2023-02-11T10:03:49.248Z,10.30
2023-02-11T10:06:15.686Z,7.20
2023-02-11T10:08:39.615Z,11.80
2023-02-11T10:10:57.454Z,8.00
2023-02-11T10:13:34.742Z,11.50
2023-02-11T10:15:55.523Z,13.80
2023-02-11T10:18:30.615Z,5.90
2023-02-11T10:20:52.102Z,7.50
2023-02-11T10:23:12.897Z,10.90
2023-02-11T10:25:37.061Z,11.40
2023-02-11T10:27:49.622Z,10.80
2023-02-11T10:30:10.046Z,10.20
2023-02-11T10:32:35.115Z,8.30
2023-02-11T10:34:48.017Z,11.30
2023-02-11T10:37:01.454Z,6.10
2023-02-11T10:39:19.977Z,10.60
2023-02-11T10:41:36.026Z,14.80
2023-02-11T10:43:48.716Z,11.30
2023-02-11T10:46:03.026Z,8.90
2023-02-11T10:48:43.337Z,10.80
2023-02-11T10:51:09.885Z,10.70
2023-02-11T10:53:25.540Z,8.50
2023-02-11T10:55:38.925Z,20.70
2023-02-11T10:57:59.553Z,7.00
2023-02-11T11:00:32.276Z,13.60
2023-02-11T11:02:47.789Z,8.80
2023-02-11T11:05:07.011Z,7.20
2023-02-11T11:07:26.310Z,12.00
2023-02-11T11:09:50.431Z,8.20
2023-02-11T11:12:02.993Z,10.90
2023-02-11T11:14:27.147Z,17.30
2023-02-11T11:16:40.332Z,10.90
2023-02-11T11:18:56.331Z,9.80
2023-02-11T11:21:16.560Z,5.70
2023-02-11T11:23:30.878Z,4.70
2023-02-11T11:25:47.074Z,7.10
2023-02-11T11:28:04.004Z,10.00
2023-02-11T11:30:23.219Z,6.40
2023-02-11T11:32:38.170Z,7.90
2023-02-11T11:34:56.840Z,11.10
2023-02-11T11:37:18.052Z,7.20
2023-02-11T11:39:34.172Z,9.00
2023-02-11T11:41:56.470Z,11.00
2023-02-11T11:44:26.934Z,9.10
2023-02-11T11:46:45.562Z,11.20
2023-02-11T11:49:06.508Z,6.60
2023-02-11T11:51:21.008Z,10.50
2023-02-11T11:53:41.033Z,10.80
2023-02-11T11:56:00.310Z,11.80
2023-02-11T11:58:19.682Z,11.50
2023-02-11T12:00:35.506Z,8.50
2023-02-11T12:03:14.097Z,6.90
2023-02-11T12:05:35.516Z,11.70
2023-02-11T12:08:06.992Z,10.50
2023-02-11T12:10:47.115Z,9.80
2023-02-11T12:13:07.756Z,9.90
2023-02-11T12:15:34.523Z,6.20
2023-02-11T12:18:02.524Z,10.30
2023-02-11T12:20:27.254Z,9.30
2023-02-11T12:22:54.053Z,7.80
2023-02-11T12:25:28.399Z,11.00
2023-02-11T12:27:51.334Z,11.10
2023-02-11T12:30:16.579Z,12.50
2023-02-11T12:32:37.543Z,10.50
2023-02-11T12:35:09.937Z,8.80
2023-02-11T12:37:36.054Z,10.00
2023-02-11T12:39:54.675Z,11.30
2023-02-11T12:42:49.273Z,7.40
2023-02-11T12:45:22.012Z,4.30
2023-02-11T12:47:44.585Z,9.70
2023-02-11T12:50:17.099Z,6.80
2023-02-11T12:54:57.018Z,9.70
2023-02-11T12:57:18.429Z,10.00
2023-02-11T12:59:43.837Z,17.20
2023-02-11T13:01:59.109Z,16.00
2023-02-11T13:04:17.039Z,12.90
2023-02-11T13:06:37.796Z,14.10
2023-02-11T13:08:54.549Z,7.90
2023-02-11T13:11:14.494Z,7.30
2023-02-11T13:13:29.887Z,15.70
2023-02-11T13:15:43.465Z,9.90
2023-02-11T13:18:03.975Z,13.70
2023-02-11T13:20:31.812Z,10.30
2023-02-11T13:22:53.909Z,9.50
2023-02-11T13:25:19.215Z,10.20
2023-02-11T13:27:41.445Z,9.00
2023-02-11T13:30:29.050Z,6.60
2023-02-11T13:33:21.087Z,11.70
2023-02-11T13:35:39.257Z,12.50
2023-02-11T13:37:53.840Z,11.10
2023-02-11T13:40:10.770Z,10.20
2023-02-11T13:42:23.569Z,10.10
2023-02-11T13:44:39.543Z,10.50
2023-02-11T13:47:02.407Z,12.60
2023-02-11T13:49:26.476Z,10.80
2023-02-11T13:51:45.504Z,10.50
2023-02-11T13:54:00.885Z,11.00
2023-02-11T13:56:25.503Z,15.20
2023-02-11T13:58:53.216Z,13.90
2023-02-11T14:01:06.730Z,10.60
2023-02-11T14:03:54.152Z,11.90
2023-02-11T14:06:41.906Z,8.90
2023-02-11T14:09:24.332Z,10.70
2023-02-11T14:12:34.184Z,10.30
2023-02-11T14:15:17.026Z,11.70
2023-02-11T14:17:38.325Z,12.40
2023-02-11T14:19:53.020Z,16.80
2023-02-11T14:22:17.628Z,11.00
2023-02-11T14:24:56.293Z,9.90
2023-02-11T14:27:13.316Z,15.00
2023-02-11T14:29:36.671Z,15.70
2023-02-11T14:31:55.989Z,9.70
2023-02-11T14:34:33.752Z,8.60
2023-02-11T14:37:06.823Z,11.50
2023-02-11T14:39:26.043Z,6.60
2023-02-11T14:41:45.017Z,8.50
2023-02-11T14:44:01.483Z,7.10
2023-02-11T14:46:15.283Z,13.10
2023-02-11T14:48:31.593Z,8.10
2023-02-11T14:50:49.800Z,7.20
2023-02-11T14:53:07.315Z,7.80
2023-02-11T14:55:32.122Z,6.50
2023-02-11T14:57:46.884Z,8.60
2023-02-11T15:00:06.430Z,6.20
2023-02-11T15:02:35.761Z,6.10
2023-02-11T15:04:48.613Z,5.50
2023-02-11T15:07:02.507Z,3.70
2023-02-11T15:09:25.171Z,3.70
2023-02-11T15:11:42.767Z,3.40
2023-02-11T15:13:57.855Z,3.80
2023-02-11T15:16:16.570Z,3.50
2023-02-11T15:18:35.091Z,3.70
2023-02-11T15:20:47.753Z,5.20
2023-02-11T15:23:03.055Z,6.20
2023-02-11T15:25:21.102Z,7.90
2023-02-11T15:27:40.956Z,6.20
2023-02-11T15:29:55.166Z,10.80
2023-02-11T15:32:16.627Z,10.40
2023-02-11T15:34:29.545Z,12.50
2023-02-11T15:36:51.908Z,6.50
2023-02-11T15:41:45.467Z,7.60
2023-02-11T15:43:58.271Z,8.30
2023-02-11T15:46:12.850Z,7.00
2023-02-11T15:48:31.719Z,6.00
2023-02-11T15:50:47.934Z,4.10
2023-02-11T15:53:05.714Z,6.70
2023-02-11T15:55:22.812Z,7.90
2023-02-11T15:57:37.886Z,10.20
2023-02-11T15:59:55.252Z,9.30
2023-02-11T16:02:18.622Z,4.20
2023-02-11T16:04:32.431Z,5.70
2023-02-11T16:06:48.993Z,8.10
2023-02-11T16:09:07.320Z,9.30
2023-02-11T16:11:33.576Z,7.90
2023-02-11T16:13:52.815Z,6.70
2023-02-11T16:16:09.033Z,8.10
2023-02-11T16:18:38.340Z,5.70
2023-02-11T16:20:55.586Z,9.70
2023-02-11T16:23:10.508Z,7.70
2023-02-11T16:25:26.017Z,7.70
2023-02-11T16:27:44.286Z,3.80
2023-02-11T16:29:58.734Z,5.80
2023-02-11T16:32:19.568Z,5.90
2023-02-11T16:34:34.407Z,5.20
2023-02-11T16:36:47.893Z,6.20
2023-02-11T16:39:01.482Z,7.70
2023-02-11T16:41:15.757Z,3.40
2023-02-11T16:43:29.633Z,2.60
2023-02-11T16:45:43.756Z,8.00
2023-02-11T16:47:56.960Z,4.00
2023-02-11T16:50:22.305Z,2.90
2023-02-11T16:52:38.276Z,3.60
2023-02-11T16:54:52.243Z,6.60
2023-02-11T16:57:12.794Z,6.50
2023-02-11T16:59:25.905Z,6.80
2023-02-11T17:01:41.458Z,4.10
2023-02-11T17:03:55.763Z,4.50
2023-02-11T17:06:10.122Z,7.50
2023-02-11T17:08:23.228Z,6.20
2023-02-11T17:10:38.733Z,3.20
2023-02-11T17:12:53.630Z,6.60
2023-02-11T17:15:07.706Z,6.70
2023-02-11T17:17:23.074Z,5.40
2023-02-11T17:19:36.383Z,5.50
2023-02-11T17:21:51.563Z,8.20
2023-02-11T17:24:05.234Z,4.00
2023-02-11T17:26:20.795Z,5.90
2023-02-11T17:28:33.877Z,7.10
2023-02-11T17:30:48.793Z,5.80
2023-02-11T17:33:02.404Z,6.20
2023-02-11T17:35:17.450Z,4.30
2023-02-11T17:37:31.387Z,4.40
2023-02-11T17:39:46.439Z,4.80
2023-02-11T17:42:01.120Z,3.00
2023-02-11T17:44:16.642Z,3.80
2023-02-11T17:46:32.019Z,3.70
2023-02-11T17:48:45.178Z,3.20
2023-02-11T17:50:58.402Z,3.70
2023-02-11T17:53:13.150Z,4.70
2023-02-11T17:55:26.498Z,4.00
2023-02-11T17:57:39.201Z,4.40
2023-02-11T17:59:52.782Z,3.30
2023-02-11T18:02:07.499Z,4.10
2023-02-11T18:04:22.753Z,3.90
2023-02-11T18:06:36.675Z,6.60
2023-02-11T18:08:49.617Z,6.30
2023-02-11T18:11:02.553Z,5.40
2023-02-11T18:13:15.136Z,8.20
2023-02-11T18:15:29.792Z,4.30
2023-02-11T18:17:42.610Z,4.20
2023-02-11T18:19:58.140Z,3.40
2023-02-11T18:22:13.614Z,3.80
2023-02-11T18:24:27.309Z,4.00
2023-02-11T18:26:41.349Z,3.90
2023-02-11T18:28:54.304Z,3.20
2023-02-11T18:31:07.661Z,3.80
2023-02-11T18:33:20.543Z,2.90
2023-02-11T18:35:34.362Z,2.40
2023-02-11T18:37:47.482Z,3.90
2023-02-11T18:40:01.163Z,3.80
2023-02-11T18:42:14.336Z,3.90
2023-02-11T18:44:28.205Z,4.70
2023-02-11T18:46:42.259Z,2.90
2023-02-11T18:48:56.465Z,5.10
2023-02-11T18:51:14.597Z,6.50
2023-02-11T18:53:28.510Z,2.50
2023-02-11T18:55:43.543Z,4.10
2023-02-11T18:57:56.685Z,5.40
2023-02-11T19:00:11.328Z,3.70
2023-02-11T19:02:25.956Z,2.80
2023-02-11T19:04:41.155Z,2.90
2023-02-11T19:06:55.191Z,7.10
2023-02-11T19:09:10.951Z,3.10
2023-02-11T19:11:44.477Z,2.70
2023-02-11T19:13:58.407Z,2.00
2023-02-11T19:16:15.904Z,2.70
2023-02-11T19:18:28.691Z,6.40
2023-02-11T19:20:44.731Z,4.90
2023-02-11T19:22:57.582Z,3.40
2023-02-11T19:25:10.758Z,2.80
2023-02-11T19:27:23.706Z,2.90
2023-02-11T19:29:37.761Z,3.80
2023-02-11T19:31:51.793Z,3.00
2023-02-11T19:34:06.260Z,3.40
2023-02-11T19:36:21.756Z,3.70
2023-02-11T19:38:35.383Z,4.10
2023-02-11T19:40:48.183Z,2.50
2023-02-11T19:43:01.221Z,4.80
2023-02-11T19:45:14.632Z,3.30
2023-02-11T19:47:28.765Z,7.80
2023-02-11T19:49:41.940Z,4.40
2023-02-11T19:51:54.841Z,3.20
2023-02-11T19:54:10.104Z,3.00
2023-02-11T19:56:24.176Z,3.20
2023-02-11T19:58:37.030Z,4.50
2023-02-11T20:00:51.240Z,5.60
2023-02-11T20:03:06.827Z,3.20
2023-02-11T20:05:20.643Z,4.40
2023-02-11T20:07:34.275Z,3.80
2023-02-11T20:09:48.144Z,2.60
2023-02-11T20:12:01.758Z,5.30
2023-02-11T20:14:18.603Z,2.90
2023-02-11T20:16:47.701Z,2.70
2023-02-11T20:19:03.342Z,2.90
2023-02-11T20:21:17.806Z,3.10
2023-02-11T20:23:30.516Z,2.80
2023-02-11T20:25:46.681Z,2.90
2023-02-11T20:28:00.499Z,2.90
2023-02-11T20:30:14.766Z,4.60
2023-02-11T20:32:27.950Z,5.10
2023-02-11T20:34:41.365Z,2.80
2023-02-11T20:36:56.018Z,4.10
2023-02-11T20:39:10.532Z,2.90
2023-02-11T20:41:26.248Z,4.50
2023-02-11T20:43:40.055Z,2.60
2023-02-11T20:45:53.225Z,3.70
2023-02-11T20:48:09.472Z,10.00
2023-02-11T20:50:23.968Z,3.20
2023-02-11T20:52:38.015Z,2.90
2023-02-11T20:54:50.661Z,4.80
2023-02-11T20:57:03.921Z,2.80
2023-02-11T20:59:19.624Z,3.10
2023-02-11T21:01:36.314Z,3.00
2023-02-11T21:03:53.499Z,4.90
2023-02-11T21:06:07.762Z,4.60
2023-02-11T21:08:21.383Z,4.60
2023-02-11T21:10:34.786Z,2.60
2023-02-11T21:12:49.923Z,4.50
2023-02-11T21:15:05.931Z,7.20
2023-02-11T21:17:19.151Z,4.00
2023-02-11T21:19:31.891Z,3.70
2023-02-11T21:21:45.934Z,3.60
2023-02-11T21:23:59.513Z,2.70
2023-02-11T21:26:12.807Z,3.10
2023-02-11T21:28:28.946Z,3.20
2023-02-11T21:30:44.138Z,4.10
2023-02-11T21:32:57.981Z,4.50
2023-02-11T21:35:12.829Z,4.80
2023-02-11T21:37:27.462Z,5.00
2023-02-11T21:39:40.634Z,3.30
2023-02-11T21:41:56.819Z,3.70
2023-02-11T21:44:10.932Z,3.40
2023-02-11T21:46:25.452Z,5.00
2023-02-11T21:48:38.676Z,3.30
2023-02-11T21:50:54.180Z,4.80
2023-02-11T21:53:07.372Z,3.60
2023-02-11T21:55:21.671Z,2.50
2023-02-11T21:57:35.241Z,3.20
2023-02-11T21:59:49.251Z,5.50
2023-02-11T22:02:02.941Z,2.20
2023-02-11T22:04:18.125Z,2.60
2023-02-11T22:06:33.242Z,2.40
2023-02-11T22:08:46.783Z,2.70
2023-02-11T22:11:04.407Z,3.90
2023-02-11T22:13:17.855Z,2.70
2023-02-11T22:15:31.350Z,5.20
2023-02-11T22:17:44.490Z,2.10
2023-02-11T22:19:57.630Z,3.90
2023-02-11T22:22:10.556Z,3.10
2023-02-11T22:24:23.601Z,3.00
2023-02-11T22:26:36.529Z,3.60
2023-02-11T22:28:49.817Z,3.00
2023-02-11T22:31:03.103Z,3.40
2023-02-11T22:33:15.643Z,1.90
2023-02-11T22:35:28.198Z,3.60
2023-02-11T22:37:40.985Z,3.30
2023-02-11T22:39:54.283Z,2.10
2023-02-11T22:42:08.074Z,2.90
2023-02-11T22:44:22.664Z,2.30
2023-02-11T22:46:35.398Z,3.30
2023-02-11T22:48:48.430Z,2.10
2023-02-11T22:51:06.884Z,2.30
2023-02-11T22:53:19.681Z,1.70
2023-02-11T22:55:32.597Z,3.30
2023-02-11T22:57:45.230Z,2.70
2023-02-11T22:59:57.997Z,2.90
2023-02-11T23:02:10.908Z,2.50
2023-02-11T23:04:24.357Z,2.10
2023-02-11T23:06:38.588Z,2.10
2023-02-11T23:08:52.381Z,3.30
2023-02-11T23:11:09.711Z,3.30
2023-02-11T23:13:23.306Z,2.10
2023-02-11T23:15:37.327Z,4.10
2023-02-11T23:17:53.227Z,3.20
2023-02-11T23:20:06.731Z,3.80
2023-02-11T23:22:20.329Z,1.80
2023-02-11T23:24:33.011Z,2.90
2023-02-11T23:26:46.748Z,3.50
2023-02-11T23:29:00.995Z,4.90
2023-02-11T23:31:22.161Z,3.80
2023-02-11T23:33:36.150Z,1.90
2023-02-11T23:35:50.141Z,3.40
2023-02-11T23:38:03.397Z,2.70
2023-02-11T23:40:18.666Z,2.90
2023-02-11T23:42:32.795Z,3.50
2023-02-11T23:44:47.187Z,3.10
2023-02-11T23:47:01.116Z,3.10
2023-02-11T23:49:16.585Z,4.20
2023-02-11T23:51:30.892Z,2.70
2023-02-11T23:53:46.748Z,5.30
2023-02-11T23:56:02.205Z,2.30
2023-02-11T23:58:15.200Z,3.10
